Rush — ZGAV9 — position and weather

sailwx.info

Track history (hours):
 
Tides and Currents Weather Stations Pressure Air Temp Water Temp Dewpoint Dewpoint Depression Visibility Wind Speed Wind Dir Waves Ship Positions

Rush

Last reported at 2014-Sep-21 11:26 UTC. Time now 2014-Sep-21 14:08 UTC.
Position N 43°43' E 007°25'.

Length 49 m; draft 1.8 m.

Type: High speed craft. MMSI: 319035300.

Date/timePositionNaut miles runAvg speedWind from/ knotsBaromVisibWave heightAir tempDewpointWater temp
2014-Sep-21 11:26N 43°43' E 007°25'0 0.0
2014-Sep-21 10:32N 43°44' E 007°25'0 0.0
2014-Sep-21 07:32N 43°44' E 007°25'0 0.0
2014-Sep-21 04:20N 43°44' E 007°25'0 0.0
2014-Sep-21 03:20N 43°43' E 007°25'0 0.0
2014-Sep-21 02:32N 43°44' E 007°25'0 0.0
2014-Sep-21 00:20N 43°44' E 007°25'0 0.0
2014-Sep-20 23:32N 43°43' E 007°25'0 0.0
2014-Sep-20 19:26N 43°44' E 007°25'0 0.0
2014-Sep-20 15:20N 43°44' E 007°25'0 0.0
2014-Sep-20 14:33N 43°43' E 007°25'4422.2
2014-Sep-20 12:33N 43°52' E 008°25'2727.2
2014-Sep-20 11:33N 43°57' E 009°03'2727.1
2014-Sep-20 10:34N 44°02' E 009°40'8 7.5
2014-Sep-20 09:32N 44°03' E 009°50'0 0.0
2014-Sep-20 08:32N 44°03' E 009°50'0 0.0
2014-Sep-20 07:32N 44°03' E 009°50'0 0.0
2014-Sep-20 06:29N 44°03' E 009°50'0 0.0
2014-Sep-20 05:32N 44°03' E 009°50'0 0.0
2014-Sep-20 04:32N 44°03' E 009°50'0 0.0
2014-Sep-20 03:32N 44°03' E 009°50'0 0.0
2014-Sep-20 02:32N 44°03' E 009°50'0 0.0
2014-Sep-20 01:32N 44°03' E 009°50'0 0.0
2014-Sep-20 00:32N 44°03' E 009°50'0 0.0
2014-Sep-19 23:32N 44°03' E 009°50'0 0.0
2014-Sep-19 22:29N 44°03' E 009°50'0 0.0
2014-Sep-19 21:32N 44°03' E 009°50'0 0.0
2014-Sep-19 20:32N 44°03' E 009°50'0 0.0
2014-Sep-19 19:32N 44°03' E 009°50'0 0.0
2014-Sep-19 18:32N 44°03' E 009°50'0 0.0
2014-Sep-19 17:32N 44°03' E 009°50'0 0.0
2014-Sep-19 16:32N 44°03' E 009°50'0 0.0
2014-Sep-19 15:32N 44°03' E 009°50'0 0.0
2014-Sep-19 14:32N 44°03' E 009°50'0 0.0
2014-Sep-19 13:32N 44°03' E 009°50'0 0.1
2014-Sep-19 12:33N 44°03' E 009°50'2121.0
2014-Sep-19 11:34N 43°45' E 010°05'2726.4
2014-Sep-19 10:33N 43°20' E 010°17'  
2014-Sep-14 09:33N 40°56' E 013°36'2323.4
2014-Sep-14 08:33N 40°44' E 014°02'10 1.4
2014-Sep-14 01:08N 40°50' E 014°14'0 0.0
2014-Sep-13 20:23N 40°50' E 014°14'0 0.0
2014-Sep-13 19:29N 40°50' E 014°14'0 0.0
2014-Sep-13 18:20N 40°50' E 014°14'0 0.0
2014-Sep-13 08:23N 40°50' E 014°14'0 0.0
2014-Sep-13 01:32N 40°50' E 014°14'0 0.0
2014-Sep-12 18:26N 40°50' E 014°14'0 0.0
2014-Sep-12 17:32N 40°50' E 014°14'0 0.0
2014-Sep-12 13:08N 40°50' E 014°14'0 0.0
2014-Sep-12 10:33N 40°50' E 014°14'9 9.2
2014-Sep-12 09:34N 40°45' E 014°04'2625.5
2014-Sep-12 08:33N 40°49' E 013°30'  
Track history (hours):
 
Tides and Currents Weather Stations Pressure Air Temp Water Temp Dewpoint Dewpoint Depression Visibility Wind Speed Wind Dir Waves Ship Positions

Rush

Last reported at 2014-Sep-21 11:26 UTC. Time now 2014-Sep-21 14:08 UTC.
Position N 43°43' E 007°25'.

Length 49 m; draft 1.8 m.

Type: High speed craft. MMSI: 319035300.

Date/timePositionNaut miles runAvg speedWind from/ knotsBaromVisibWave heightAir tempDewpointWater temp
2014-Sep-21 11:26N 43°43' E 007°25'0 0.0
2014-Sep-21 10:32N 43°44' E 007°25'0 0.0
2014-Sep-21 07:32N 43°44' E 007°25'0 0.0
2014-Sep-21 04:20N 43°44' E 007°25'0 0.0
2014-Sep-21 03:20N 43°43' E 007°25'0 0.0
2014-Sep-21 02:32N 43°44' E 007°25'0 0.0
2014-Sep-21 00:20N 43°44' E 007°25'0 0.0
2014-Sep-20 23:32N 43°43' E 007°25'0 0.0
2014-Sep-20 19:26N 43°44' E 007°25'0 0.0
2014-Sep-20 15:20N 43°44' E 007°25'0 0.0
2014-Sep-20 14:33N 43°43' E 007°25'4422.2
2014-Sep-20 12:33N 43°52' E 008°25'2727.2
2014-Sep-20 11:33N 43°57' E 009°03'2727.1
2014-Sep-20 10:34N 44°02' E 009°40'8 7.5
2014-Sep-20 09:32N 44°03' E 009°50'0 0.0
2014-Sep-20 08:32N 44°03' E 009°50'0 0.0
2014-Sep-20 07:32N 44°03' E 009°50'0 0.0
2014-Sep-20 06:29N 44°03' E 009°50'0 0.0
2014-Sep-20 05:32N 44°03' E 009°50'0 0.0
2014-Sep-20 04:32N 44°03' E 009°50'0 0.0
2014-Sep-20 03:32N 44°03' E 009°50'0 0.0
2014-Sep-20 02:32N 44°03' E 009°50'0 0.0
2014-Sep-20 01:32N 44°03' E 009°50'0 0.0
2014-Sep-20 00:32N 44°03' E 009°50'0 0.0
2014-Sep-19 23:32N 44°03' E 009°50'0 0.0
2014-Sep-19 22:29N 44°03' E 009°50'0 0.0
2014-Sep-19 21:32N 44°03' E 009°50'0 0.0
2014-Sep-19 20:32N 44°03' E 009°50'0 0.0
2014-Sep-19 19:32N 44°03' E 009°50'0 0.0
2014-Sep-19 18:32N 44°03' E 009°50'0 0.0
2014-Sep-19 17:32N 44°03' E 009°50'0 0.0
2014-Sep-19 16:32N 44°03' E 009°50'0 0.0
2014-Sep-19 15:32N 44°03' E 009°50'0 0.0
2014-Sep-19 14:32N 44°03' E 009°50'0 0.0
2014-Sep-19 13:32N 44°03' E 009°50'0 0.1
2014-Sep-19 12:33N 44°03' E 009°50'2121.0
2014-Sep-19 11:34N 43°45' E 010°05'2726.4
2014-Sep-19 10:33N 43°20' E 010°17'  
2014-Sep-14 09:33N 40°56' E 013°36'2323.4
2014-Sep-14 08:33N 40°44' E 014°02'10 1.4
2014-Sep-14 01:08N 40°50' E 014°14'0 0.0
2014-Sep-13 20:23N 40°50' E 014°14'0 0.0
2014-Sep-13 19:29N 40°50' E 014°14'0 0.0
2014-Sep-13 18:20N 40°50' E 014°14'0 0.0
2014-Sep-13 08:23N 40°50' E 014°14'0 0.0
2014-Sep-13 01:32N 40°50' E 014°14'0 0.0
2014-Sep-12 18:26N 40°50' E 014°14'0 0.0
2014-Sep-12 17:32N 40°50' E 014°14'0 0.0
2014-Sep-12 13:08N 40°50' E 014°14'0 0.0
2014-Sep-12 10:33N 40°50' E 014°14'9 9.2
2014-Sep-12 09:34N 40°45' E 014°04'2625.5
2014-Sep-12 08:33N 40°49' E 013°30'  

Dump ship's entire track history